AZA145 LCLK-LTFJ
Flight info
| Callsign | AZA145 |
|---|---|
| Flight time | 1h 30m |
| Altitude | 34000 |
| Route | BONEK DCT TOMBI UA16 DERYA UM855 EKSEN UL610 OSGED UL620 APSER UL610 ETAMP |
| Aircraft | A320/M-SDE3FGHIRWY/LB1 |
Departure
| Time | 2026-04-29 22:16 |
|---|---|
| Airport | Larnaca International Airport (LCLK) |
Arrival
| Time | 2026-04-29 23:46 |
|---|---|
| Airport | Istanbul Sabiha Gökçen International Airport (LTFJ) |
| Time | Latitude | Longitude | Altitude | Speed | Heading |
|---|---|---|---|---|---|
| 2026-04-29 21:56 | 34.87031 | 33.61046 | 20 ft | 0 kts | 236° |
| 2026-04-29 22:00 | 34.87035 | 33.61053 | 20 ft | 4 kts | 235° |
| 2026-04-29 22:00 | 34.87050 | 33.61081 | 20 ft | 4 kts | 239° |
| 2026-04-29 22:01 | 34.87061 | 33.61110 | 21 ft | 4 kts | 260° |
| 2026-04-29 22:01 | 34.87064 | 33.61133 | 20 ft | 4 kts | 240° |
| 2026-04-29 22:01 | 34.87077 | 33.61146 | 20 ft | 4 kts | 152° |
| 2026-04-29 22:01 | 34.87095 | 33.61128 | 20 ft | 2 kts | 135° |
| 2026-04-29 22:02 | 34.87095 | 33.61127 | 20 ft | 0 kts | 135° |
| 2026-04-29 22:11 | 34.87091 | 33.61133 | 20 ft | 4 kts | 135° |
| 2026-04-29 22:11 | 34.87065 | 33.61163 | 20 ft | 6 kts | 135° |
| 2026-04-29 22:12 | 34.87035 | 33.61200 | 20 ft | 7 kts | 135° |
| 2026-04-29 22:12 | 34.86996 | 33.61248 | 21 ft | 9 kts | 135° |
| 2026-04-29 22:12 | 34.86940 | 33.61311 | 21 ft | 13 kts | 147° |
| 2026-04-29 22:12 | 34.86855 | 33.61261 | 18 ft | 16 kts | 229° |
| 2026-04-29 22:13 | 34.86777 | 33.61160 | 19 ft | 16 kts | 225° |
| 2026-04-29 22:13 | 34.86692 | 33.61070 | 21 ft | 16 kts | 202° |
| 2026-04-29 22:13 | 34.86585 | 33.61064 | 21 ft | 16 kts | 210° |
| 2026-04-29 22:13 | 34.86492 | 33.61063 | 23 ft | 15 kts | 133° |
| 2026-04-29 22:14 | 34.86498 | 33.61197 | 21 ft | 17 kts | 77° |
| 2026-04-29 22:14 | 34.86527 | 33.61331 | 20 ft | 16 kts | 69° |
| 2026-04-29 22:14 | 34.86592 | 33.61440 | 18 ft | 16 kts | 41° |
| 2026-04-29 22:14 | 34.86638 | 33.61490 | 16 ft | 0 kts | 45° |
| 2026-04-29 22:15 | 34.86641 | 33.61494 | 16 ft | 2 kts | 45° |
| 2026-04-29 22:15 | 34.86653 | 33.61509 | 16 ft | 3 kts | 45° |
| 2026-04-29 22:15 | 34.86702 | 33.61570 | 17 ft | 35 kts | 45° |
| 2026-04-29 22:15 | 34.87065 | 33.62021 | 21 ft | 113 kts | 46° |
| 2026-04-29 22:16 | 34.87803 | 33.62922 | 49 ft | 181 kts | 46° |
| 2026-04-29 22:16 | 34.88686 | 33.64007 | 848 ft | 181 kts | 46° |
| 2026-04-29 22:16 | 34.89595 | 33.65088 | 1718 ft | 184 kts | 41° |
| 2026-04-29 22:16 | 34.90575 | 33.65998 | 2518 ft | 171 kts | 30° |
| 2026-04-29 22:17 | 34.91602 | 33.66639 | 3206 ft | 162 kts | 20° |
| 2026-04-29 22:17 | 34.92670 | 33.67021 | 3787 ft | 157 kts | 8° |
| 2026-04-29 22:17 | 34.93742 | 33.67113 | 4295 ft | 155 kts | 353° |
| 2026-04-29 22:17 | 34.94768 | 33.66616 | 4593 ft | 167 kts | 314° |
| 2026-04-29 22:18 | 34.95323 | 33.65362 | 4886 ft | 179 kts | 279° |
| 2026-04-29 22:18 | 34.95352 | 33.63807 | 5240 ft | 189 kts | 261° |
| 2026-04-29 22:18 | 34.95068 | 33.62207 | 5626 ft | 198 kts | 257° |
| 2026-04-29 22:18 | 34.94853 | 33.60460 | 5849 ft | 220 kts | 261° |
| 2026-04-29 22:19 | 34.94717 | 33.58506 | 6210 ft | 239 kts | 269° |
| 2026-04-29 22:19 | 34.94778 | 33.56456 | 6766 ft | 246 kts | 272° |
| 2026-04-29 22:19 | 34.94911 | 33.54373 | 6928 ft | 246 kts | 273° |
| 2026-04-29 22:19 | 34.95059 | 33.52292 | 7536 ft | 247 kts | 274° |
| 2026-04-29 22:20 | 34.95204 | 33.50188 | 8335 ft | 249 kts | 274° |
| 2026-04-29 22:20 | 34.95339 | 33.48070 | 9105 ft | 252 kts | 274° |
| 2026-04-29 22:20 | 34.95465 | 33.45926 | 9877 ft | 255 kts | 274° |
| 2026-04-29 22:20 | 34.95586 | 33.43753 | 10567 ft | 258 kts | 274° |
| 2026-04-29 22:21 | 34.95702 | 33.41572 | 10863 ft | 261 kts | 274° |
| 2026-04-29 22:21 | 34.95817 | 33.39380 | 10947 ft | 260 kts | 274° |
| 2026-04-29 22:21 | 34.95931 | 33.37173 | 10971 ft | 259 kts | 274° |
| 2026-04-29 22:21 | 34.96044 | 33.34985 | 10975 ft | 259 kts | 274° |
| 2026-04-29 22:22 | 34.96165 | 33.32796 | 10976 ft | 259 kts | 277° |
| 2026-04-29 22:22 | 34.96583 | 33.30638 | 10984 ft | 274 kts | 290° |
| 2026-04-29 22:22 | 34.97266 | 33.28319 | 10979 ft | 307 kts | 290° |
| 2026-04-29 22:22 | 34.98021 | 33.25748 | 10983 ft | 334 kts | 290° |
| 2026-04-29 22:23 | 34.98810 | 33.23036 | 10981 ft | 343 kts | 290° |
| 2026-04-29 22:23 | 34.99601 | 33.20286 | 10980 ft | 345 kts | 289° |
| 2026-04-29 22:23 | 35.00394 | 33.17521 | 10981 ft | 345 kts | 289° |
| 2026-04-29 22:23 | 35.01188 | 33.14754 | 10981 ft | 345 kts | 289° |
| 2026-04-29 22:24 | 35.01983 | 33.11987 | 10982 ft | 346 kts | 289° |
| 2026-04-29 22:24 | 35.02782 | 33.09223 | 10982 ft | 345 kts | 289° |
| 2026-04-29 22:24 | 35.03578 | 33.06465 | 10981 ft | 345 kts | 289° |
| 2026-04-29 22:24 | 35.04394 | 33.03767 | 11475 ft | 300 kts | 304° |
| 2026-04-29 22:25 | 35.05407 | 33.01808 | 13434 ft | 276 kts | 307° |
| 2026-04-29 22:25 | 35.06337 | 32.99701 | 13879 ft | 288 kts | 298° |
| 2026-04-29 22:25 | 35.06948 | 32.97331 | 14346 ft | 297 kts | 285° |
| 2026-04-29 22:25 | 35.07159 | 32.94803 | 14904 ft | 301 kts | 282° |
| 2026-04-29 22:26 | 35.07529 | 32.92290 | 15551 ft | 301 kts | 291° |
| 2026-04-29 22:26 | 35.08217 | 32.89871 | 16181 ft | 302 kts | 296° |
| 2026-04-29 22:26 | 35.08968 | 32.87472 | 16807 ft | 303 kts | 297° |
| 2026-04-29 22:26 | 35.09755 | 32.85079 | 17459 ft | 304 kts | 298° |
| 2026-04-29 22:27 | 35.10594 | 32.82716 | 18130 ft | 303 kts | 301° |
| 2026-04-29 22:27 | 35.11511 | 32.80408 | 18706 ft | 302 kts | 303° |
| 2026-04-29 22:27 | 35.12508 | 32.78158 | 19284 ft | 301 kts | 306° |
| 2026-04-29 22:27 | 35.13580 | 32.75965 | 19857 ft | 300 kts | 308° |
| 2026-04-29 22:28 | 35.14652 | 32.73829 | 20430 ft | 298 kts | 307° |
| 2026-04-29 22:28 | 35.15685 | 32.71638 | 21003 ft | 296 kts | 304° |
| 2026-04-29 22:28 | 35.16600 | 32.69385 | 21586 ft | 294 kts | 300° |
| 2026-04-29 22:28 | 35.17380 | 32.67090 | 22178 ft | 291 kts | 298° |
| 2026-04-29 22:29 | 35.17880 | 32.65581 | 22568 ft | 289 kts | 299° |
| 2026-04-29 22:29 | 35.19061 | 32.62519 | 22697 ft | 308 kts | 303° |
| 2026-04-29 22:29 | 35.20117 | 32.60161 | 22840 ft | 320 kts | 305° |
| 2026-04-29 22:29 | 35.21281 | 32.57785 | 23046 ft | 331 kts | 305° |
| 2026-04-29 22:30 | 35.22426 | 32.55298 | 23288 ft | 340 kts | 302° |
| 2026-04-29 22:30 | 35.23512 | 32.52695 | 23584 ft | 347 kts | 301° |
| 2026-04-29 22:30 | 35.24596 | 32.50026 | 23876 ft | 353 kts | 300° |
| 2026-04-29 22:30 | 35.25659 | 32.47335 | 24191 ft | 358 kts | 299° |
| 2026-04-29 22:31 | 35.26724 | 32.44559 | 24540 ft | 362 kts | 298° |
| 2026-04-29 22:31 | 35.27769 | 32.41748 | 24918 ft | 364 kts | 298° |
| 2026-04-29 22:31 | 35.28795 | 32.38899 | 25334 ft | 366 kts | 297° |
| 2026-04-29 22:31 | 35.29795 | 32.36023 | 25767 ft | 367 kts | 296° |
| 2026-04-29 22:32 | 35.30793 | 32.33141 | 26233 ft | 367 kts | 298° |
| 2026-04-29 22:32 | 35.31865 | 32.30299 | 26724 ft | 367 kts | 300° |
| 2026-04-29 22:32 | 35.33010 | 32.27518 | 27218 ft | 366 kts | 302° |
| 2026-04-29 22:32 | 35.33813 | 32.25703 | 27545 ft | 365 kts | 303° |
| 2026-04-29 22:33 | 35.35088 | 32.23018 | 28049 ft | 364 kts | 305° |
| 2026-04-29 22:33 | 35.36435 | 32.20404 | 28557 ft | 362 kts | 307° |
| 2026-04-29 22:33 | 35.37844 | 32.17853 | 29065 ft | 360 kts | 309° |
| 2026-04-29 22:33 | 35.39782 | 32.14572 | 29761 ft | 356 kts | 311° |
| 2026-04-29 22:34 | 35.41290 | 32.12180 | 30252 ft | 353 kts | 311° |
| 2026-04-29 22:34 | 35.42300 | 32.10569 | 30552 ft | 350 kts | 311° |
| 2026-04-29 22:34 | 35.43721 | 32.08215 | 30995 ft | 345 kts | 310° |
| 2026-04-29 22:34 | 35.45101 | 32.05831 | 31464 ft | 339 kts | 309° |
| 2026-04-29 22:35 | 35.46412 | 32.03458 | 31924 ft | 333 kts | 307° |
| 2026-04-29 22:35 | 35.47636 | 32.01082 | 32381 ft | 325 kts | 305° |
| 2026-04-29 22:35 | 35.48759 | 31.98720 | 32845 ft | 317 kts | 303° |
| 2026-04-29 22:35 | 35.49784 | 31.96368 | 33283 ft | 308 kts | 301° |
| 2026-04-29 22:36 | 35.50717 | 31.94016 | 33504 ft | 307 kts | 299° |
| 2026-04-29 22:36 | 35.52424 | 31.89072 | 33356 ft | 321 kts | 295° |
| 2026-04-29 22:36 | 35.53185 | 31.86502 | 33572 ft | 318 kts | 294° |
| 2026-04-29 22:37 | 35.53856 | 31.83936 | 33944 ft | 311 kts | 291° |
| 2026-04-29 22:37 | 35.54442 | 31.81390 | 34113 ft | 311 kts | 290° |
| 2026-04-29 22:37 | 35.55074 | 31.78822 | 34060 ft | 317 kts | 294° |
| 2026-04-29 22:38 | 35.56728 | 31.73703 | 34109 ft | 323 kts | 300° |
| 2026-04-29 22:38 | 35.57749 | 31.71271 | 34379 ft | 318 kts | 304° |
| 2026-04-29 22:38 | 35.58901 | 31.68963 | 34563 ft | 316 kts | 308° |
| 2026-04-29 22:39 | 35.61630 | 31.64665 | 34505 ft | 327 kts | 316° |
| 2026-04-29 22:39 | 35.64848 | 31.60903 | 34279 ft | 314 kts | 324° |
| 2026-04-29 22:39 | 35.66655 | 31.59223 | 33759 ft | 337 kts | 329° |
| 2026-04-29 22:40 | 35.68658 | 31.57658 | 33775 ft | 340 kts | 333° |
| 2026-04-29 22:40 | 35.70711 | 31.56247 | 34030 ft | 342 kts | 327° |
| 2026-04-29 22:40 | 35.72752 | 31.54521 | 33088 ft | 373 kts | 317° |
| 2026-04-29 22:40 | 35.74501 | 31.52322 | 34135 ft | 337 kts | 307° |
| 2026-04-29 22:41 | 35.75890 | 31.50022 | 34655 ft | 335 kts | 303° |
| 2026-04-29 22:41 | 35.78485 | 31.45097 | 34446 ft | 358 kts | 304° |
| 2026-04-29 22:41 | 35.80014 | 31.42568 | 34054 ft | 379 kts | 308° |
| 2026-04-29 22:42 | 35.81788 | 31.40048 | 33680 ft | 397 kts | 314° |
| 2026-04-29 22:42 | 35.83824 | 31.37728 | 33830 ft | 401 kts | 318° |
| 2026-04-29 22:42 | 35.85976 | 31.35582 | 33995 ft | 405 kts | 321° |
| 2026-04-29 22:43 | 35.90583 | 31.31337 | 34008 ft | 420 kts | 322° |
| 2026-04-29 22:43 | 35.95310 | 31.26924 | 34005 ft | 430 kts | 320° |
| 2026-04-29 22:44 | 36.00026 | 31.22323 | 34002 ft | 432 kts | 320° |
| 2026-04-29 22:44 | 36.04730 | 31.17657 | 34002 ft | 433 kts | 320° |
| 2026-04-29 22:45 | 36.09433 | 31.13000 | 34002 ft | 433 kts | 320° |
| 2026-04-29 22:45 | 36.14152 | 31.08346 | 34003 ft | 433 kts | 320° |
| 2026-04-29 22:46 | 36.18870 | 31.03705 | 34014 ft | 433 kts | 320° |
| 2026-04-29 22:46 | 36.23578 | 30.99048 | 34011 ft | 433 kts | 320° |
| 2026-04-29 22:47 | 36.28255 | 30.94418 | 34015 ft | 433 kts | 320° |
| 2026-04-29 22:47 | 36.32957 | 30.89749 | 34015 ft | 432 kts | 320° |
| 2026-04-29 22:48 | 36.37667 | 30.85110 | 34009 ft | 433 kts | 323° |
| 2026-04-29 22:48 | 36.43086 | 30.81851 | 34008 ft | 437 kts | 342° |
| 2026-04-29 22:49 | 36.49143 | 30.80927 | 34005 ft | 442 kts | 356° |
| 2026-04-29 22:49 | 36.55289 | 30.80725 | 34002 ft | 442 kts | 356° |
| 2026-04-29 22:50 | 36.61439 | 30.80517 | 34000 ft | 442 kts | 356° |
| 2026-04-29 22:50 | 36.67595 | 30.80302 | 34012 ft | 442 kts | 356° |
| 2026-04-29 22:51 | 36.73712 | 30.80096 | 34011 ft | 442 kts | 356° |
| 2026-04-29 22:51 | 36.82936 | 30.79770 | 34008 ft | 442 kts | 356° |
| 2026-04-29 22:52 | 36.89083 | 30.79554 | 34019 ft | 442 kts | 355° |
| 2026-04-29 22:52 | 36.95216 | 30.79220 | 34021 ft | 440 kts | 353° |
| 2026-04-29 22:53 | 37.01179 | 30.78474 | 34023 ft | 439 kts | 351° |
| 2026-04-29 22:53 | 37.07216 | 30.77592 | 34027 ft | 438 kts | 351° |
| 2026-04-29 22:54 | 37.13201 | 30.76786 | 34045 ft | 438 kts | 351° |
| 2026-04-29 22:54 | 37.19264 | 30.76051 | 34057 ft | 437 kts | 352° |
| 2026-04-29 22:55 | 37.25231 | 30.75330 | 34061 ft | 437 kts | 352° |
| 2026-04-29 22:55 | 37.31165 | 30.74591 | 34073 ft | 436 kts | 351° |
| 2026-04-29 22:56 | 37.37171 | 30.73835 | 34070 ft | 436 kts | 351° |
| 2026-04-29 22:56 | 37.43202 | 30.73065 | 34070 ft | 436 kts | 351° |
| 2026-04-29 22:57 | 37.49215 | 30.72211 | 34072 ft | 435 kts | 350° |
| 2026-04-29 22:57 | 37.55229 | 30.71299 | 34086 ft | 435 kts | 350° |
| 2026-04-29 22:58 | 37.61225 | 30.70420 | 34081 ft | 435 kts | 351° |
| 2026-04-29 22:58 | 37.67244 | 30.69680 | 34077 ft | 435 kts | 352° |
| 2026-04-29 22:59 | 37.73271 | 30.68983 | 34073 ft | 435 kts | 352° |
| 2026-04-29 22:59 | 37.79286 | 30.68258 | 34076 ft | 434 kts | 351° |
| 2026-04-29 23:00 | 37.85251 | 30.67515 | 34071 ft | 433 kts | 351° |
| 2026-04-29 23:00 | 37.91092 | 30.65905 | 34063 ft | 427 kts | 336° |
| 2026-04-29 23:01 | 37.96542 | 30.62936 | 34065 ft | 427 kts | 334° |
| 2026-04-29 23:01 | 38.02001 | 30.59956 | 34051 ft | 427 kts | 334° |
| 2026-04-29 23:02 | 38.07459 | 30.56977 | 34045 ft | 427 kts | 334° |
| 2026-04-29 23:02 | 38.12920 | 30.53984 | 34050 ft | 427 kts | 334° |
| 2026-04-29 23:03 | 38.18378 | 30.50983 | 34053 ft | 427 kts | 334° |
| 2026-04-29 23:03 | 38.23830 | 30.47981 | 34061 ft | 427 kts | 334° |
| 2026-04-29 23:04 | 38.29274 | 30.44982 | 34062 ft | 426 kts | 334° |
| 2026-04-29 23:04 | 38.34708 | 30.41983 | 34059 ft | 426 kts | 334° |
| 2026-04-29 23:05 | 38.40108 | 30.39000 | 34065 ft | 426 kts | 334° |
| 2026-04-29 23:05 | 38.45542 | 30.35989 | 34079 ft | 425 kts | 334° |
| 2026-04-29 23:06 | 38.50976 | 30.32977 | 34076 ft | 425 kts | 334° |
| 2026-04-29 23:06 | 38.56402 | 30.29971 | 34066 ft | 425 kts | 334° |
| 2026-04-29 23:07 | 38.61827 | 30.26956 | 34076 ft | 425 kts | 334° |
| 2026-04-29 23:07 | 38.67243 | 30.23938 | 34077 ft | 424 kts | 334° |
| 2026-04-29 23:08 | 38.72662 | 30.20920 | 34079 ft | 424 kts | 334° |
| 2026-04-29 23:08 | 38.78045 | 30.17922 | 34079 ft | 424 kts | 334° |
| 2026-04-29 23:09 | 38.83461 | 30.14897 | 34075 ft | 424 kts | 334° |
| 2026-04-29 23:09 | 38.88879 | 30.11858 | 34074 ft | 425 kts | 334° |
| 2026-04-29 23:10 | 38.94295 | 30.08817 | 34086 ft | 424 kts | 333° |
| 2026-04-29 23:10 | 38.99674 | 30.05800 | 34091 ft | 424 kts | 333° |
| 2026-04-29 23:11 | 39.05085 | 30.02756 | 34090 ft | 424 kts | 333° |
| 2026-04-29 23:11 | 39.10486 | 29.99713 | 34092 ft | 423 kts | 333° |
| 2026-04-29 23:12 | 39.15885 | 29.96668 | 34111 ft | 423 kts | 333° |
| 2026-04-29 23:12 | 39.21274 | 29.93615 | 33841 ft | 424 kts | 333° |
| 2026-04-29 23:13 | 39.23990 | 29.92071 | 32787 ft | 429 kts | 333° |
| 2026-04-29 23:13 | 39.26692 | 29.90536 | 31707 ft | 432 kts | 333° |
| 2026-04-29 23:13 | 39.29511 | 29.88933 | 30549 ft | 440 kts | 333° |
| 2026-04-29 23:13 | 39.32269 | 29.87363 | 29861 ft | 435 kts | 333° |
| 2026-04-29 23:14 | 39.35017 | 29.85804 | 29243 ft | 428 kts | 333° |
| 2026-04-29 23:14 | 39.37725 | 29.84271 | 28636 ft | 422 kts | 333° |
| 2026-04-29 23:14 | 39.39503 | 29.83268 | 28233 ft | 418 kts | 333° |
| 2026-04-29 23:14 | 39.43056 | 29.81276 | 27471 ft | 411 kts | 333° |
| 2026-04-29 23:15 | 39.45644 | 29.79834 | 27103 ft | 401 kts | 333° |
| 2026-04-29 23:15 | 39.48198 | 29.78409 | 26516 ft | 398 kts | 333° |
| 2026-04-29 23:15 | 39.50738 | 29.76983 | 25947 ft | 395 kts | 333° |
| 2026-04-29 23:15 | 39.53247 | 29.75568 | 25393 ft | 392 kts | 333° |
| 2026-04-29 23:16 | 39.55709 | 29.74178 | 24860 ft | 389 kts | 333° |
| 2026-04-29 23:16 | 39.58183 | 29.72778 | 24338 ft | 386 kts | 333° |
| 2026-04-29 23:16 | 39.60645 | 29.71390 | 23835 ft | 384 kts | 333° |
| 2026-04-29 23:16 | 39.63085 | 29.70018 | 23285 ft | 381 kts | 333° |
| 2026-04-29 23:17 | 39.65508 | 29.68654 | 22722 ft | 379 kts | 333° |
| 2026-04-29 23:17 | 39.67921 | 29.67294 | 22233 ft | 375 kts | 333° |
| 2026-04-29 23:17 | 39.70303 | 29.65949 | 21808 ft | 371 kts | 333° |
| 2026-04-29 23:17 | 39.72660 | 29.64615 | 21376 ft | 368 kts | 333° |
| 2026-04-29 23:18 | 39.74996 | 29.63290 | 20953 ft | 365 kts | 333° |
| 2026-04-29 23:18 | 39.77320 | 29.61970 | 20533 ft | 363 kts | 333° |
| 2026-04-29 23:18 | 39.79630 | 29.60660 | 20098 ft | 361 kts | 333° |
| 2026-04-29 23:18 | 39.81934 | 29.59353 | 19691 ft | 360 kts | 333° |
| 2026-04-29 23:19 | 39.84202 | 29.58068 | 19480 ft | 350 kts | 333° |
| 2026-04-29 23:19 | 39.86370 | 29.56842 | 19364 ft | 337 kts | 333° |
| 2026-04-29 23:19 | 39.88483 | 29.55644 | 19249 ft | 326 kts | 332° |
| 2026-04-29 23:19 | 39.90552 | 29.54476 | 19009 ft | 320 kts | 334° |
| 2026-04-29 23:20 | 39.92679 | 29.53600 | 18807 ft | 321 kts | 340° |
| 2026-04-29 23:20 | 39.94820 | 29.52810 | 18446 ft | 319 kts | 340° |
| 2026-04-29 23:20 | 39.96949 | 29.52028 | 18055 ft | 317 kts | 340° |
| 2026-04-29 23:20 | 39.99072 | 29.51253 | 17696 ft | 315 kts | 340° |
| 2026-04-29 23:21 | 40.00467 | 29.50746 | 17473 ft | 314 kts | 340° |
| 2026-04-29 23:21 | 40.03280 | 29.49718 | 16985 ft | 312 kts | 340° |
| 2026-04-29 23:21 | 40.04665 | 29.49210 | 16760 ft | 311 kts | 340° |
| 2026-04-29 23:21 | 40.06746 | 29.48455 | 16414 ft | 311 kts | 343° |
| 2026-04-29 23:22 | 40.08903 | 29.48127 | 16064 ft | 315 kts | 356° |
| 2026-04-29 23:22 | 40.11086 | 29.48497 | 15698 ft | 319 kts | 11° |
| 2026-04-29 23:22 | 40.13214 | 29.49362 | 15332 ft | 320 kts | 13° |
| 2026-04-29 23:22 | 40.15333 | 29.50245 | 14963 ft | 318 kts | 13° |
| 2026-04-29 23:23 | 40.17442 | 29.51123 | 14599 ft | 318 kts | 13° |
| 2026-04-29 23:23 | 40.19522 | 29.51987 | 14240 ft | 317 kts | 13° |
| 2026-04-29 23:23 | 40.21624 | 29.52857 | 13876 ft | 317 kts | 13° |
| 2026-04-29 23:23 | 40.23736 | 29.53623 | 13525 ft | 311 kts | 5° |
| 2026-04-29 23:24 | 40.25862 | 29.53713 | 13143 ft | 304 kts | 349° |
| 2026-04-29 23:24 | 40.27874 | 29.53051 | 12830 ft | 295 kts | 334° |
| 2026-04-29 23:24 | 40.29652 | 29.51755 | 12418 ft | 290 kts | 321° |
| 2026-04-29 23:24 | 40.31267 | 29.50183 | 12051 ft | 288 kts | 321° |
| 2026-04-29 23:25 | 40.32881 | 29.48616 | 11655 ft | 288 kts | 321° |
| 2026-04-29 23:25 | 40.34481 | 29.47067 | 11283 ft | 286 kts | 322° |
| 2026-04-29 23:25 | 40.36077 | 29.45521 | 10954 ft | 283 kts | 322° |
| 2026-04-29 23:25 | 40.37664 | 29.43988 | 10604 ft | 282 kts | 322° |
| 2026-04-29 23:26 | 40.39094 | 29.42250 | 10225 ft | 280 kts | 307° |
| 2026-04-29 23:26 | 40.40044 | 29.40073 | 9869 ft | 279 kts | 291° |
| 2026-04-29 23:26 | 40.40466 | 29.37599 | 9511 ft | 278 kts | 275° |
| 2026-04-29 23:26 | 40.40460 | 29.35074 | 9171 ft | 277 kts | 271° |
| 2026-04-29 23:27 | 40.40428 | 29.32553 | 8836 ft | 276 kts | 271° |
| 2026-04-29 23:27 | 40.40400 | 29.30042 | 8501 ft | 275 kts | 271° |
| 2026-04-29 23:27 | 40.40371 | 29.27539 | 8201 ft | 272 kts | 271° |
| 2026-04-29 23:27 | 40.40341 | 29.25104 | 8087 ft | 261 kts | 271° |
| 2026-04-29 23:28 | 40.40369 | 29.22771 | 7988 ft | 252 kts | 279° |
| 2026-04-29 23:28 | 40.40825 | 29.20571 | 8000 ft | 250 kts | 295° |
| 2026-04-29 23:28 | 40.41676 | 29.18596 | 7999 ft | 249 kts | 302° |
| 2026-04-29 23:28 | 40.42576 | 29.16659 | 8003 ft | 249 kts | 302° |
| 2026-04-29 23:29 | 40.43476 | 29.14709 | 7998 ft | 249 kts | 302° |
| 2026-04-29 23:29 | 40.44238 | 29.12676 | 7999 ft | 250 kts | 288° |
| 2026-04-29 23:29 | 40.44514 | 29.10419 | 7996 ft | 252 kts | 271° |
| 2026-04-29 23:29 | 40.44371 | 29.08118 | 8000 ft | 254 kts | 266° |
| 2026-04-29 23:30 | 40.44198 | 29.05843 | 8000 ft | 254 kts | 266° |
| 2026-04-29 23:30 | 40.44024 | 29.03529 | 8000 ft | 254 kts | 266° |
| 2026-04-29 23:30 | 40.43850 | 29.01227 | 8004 ft | 254 kts | 266° |
| 2026-04-29 23:30 | 40.43792 | 28.98919 | 7995 ft | 252 kts | 278° |
| 2026-04-29 23:31 | 40.44105 | 28.96662 | 8003 ft | 251 kts | 283° |
| 2026-04-29 23:31 | 40.44453 | 28.94420 | 8000 ft | 251 kts | 283° |
| 2026-04-29 23:31 | 40.44797 | 28.92175 | 7997 ft | 250 kts | 283° |
| 2026-04-29 23:31 | 40.45139 | 28.89936 | 8002 ft | 250 kts | 283° |
| 2026-04-29 23:32 | 40.45482 | 28.87705 | 8004 ft | 250 kts | 284° |
| 2026-04-29 23:32 | 40.46070 | 28.85574 | 8002 ft | 248 kts | 300° |
| 2026-04-29 23:32 | 40.46884 | 28.83613 | 8004 ft | 248 kts | 300° |
| 2026-04-29 23:32 | 40.47707 | 28.81617 | 7999 ft | 248 kts | 300° |
| 2026-04-29 23:33 | 40.48525 | 28.79622 | 7999 ft | 248 kts | 300° |
| 2026-04-29 23:33 | 40.49342 | 28.77624 | 8000 ft | 248 kts | 300° |
| 2026-04-29 23:33 | 40.50181 | 28.75648 | 7999 ft | 247 kts | 305° |
| 2026-04-29 23:33 | 40.51309 | 28.73952 | 8005 ft | 246 kts | 316° |
| 2026-04-29 23:34 | 40.52537 | 28.72372 | 8006 ft | 247 kts | 316° |
| 2026-04-29 23:34 | 40.53758 | 28.70791 | 8003 ft | 246 kts | 316° |
| 2026-04-29 23:34 | 40.54976 | 28.69203 | 8002 ft | 247 kts | 316° |
| 2026-04-29 23:34 | 40.56182 | 28.67629 | 8005 ft | 247 kts | 316° |
| 2026-04-29 23:35 | 40.57456 | 28.66120 | 8004 ft | 246 kts | 325° |
| 2026-04-29 23:35 | 40.58949 | 28.65016 | 8007 ft | 247 kts | 332° |
| 2026-04-29 23:35 | 40.60475 | 28.63966 | 8003 ft | 247 kts | 332° |
| 2026-04-29 23:35 | 40.61995 | 28.62914 | 8008 ft | 247 kts | 332° |
| 2026-04-29 23:36 | 40.63589 | 28.62104 | 8000 ft | 247 kts | 351° |
| 2026-04-29 23:36 | 40.65302 | 28.62320 | 8001 ft | 251 kts | 19° |
| 2026-04-29 23:36 | 40.66761 | 28.63616 | 7812 ft | 257 kts | 48° |
| 2026-04-29 23:36 | 40.67575 | 28.65683 | 7609 ft | 260 kts | 68° |
| 2026-04-29 23:37 | 40.68170 | 28.67935 | 7392 ft | 260 kts | 68° |
| 2026-04-29 23:37 | 40.68756 | 28.70177 | 7185 ft | 259 kts | 68° |
| 2026-04-29 23:37 | 40.69343 | 28.72417 | 6973 ft | 258 kts | 68° |
| 2026-04-29 23:37 | 40.69927 | 28.74640 | 6762 ft | 256 kts | 68° |
| 2026-04-29 23:38 | 40.70512 | 28.76850 | 6564 ft | 255 kts | 68° |
| 2026-04-29 23:38 | 40.71097 | 28.79048 | 6366 ft | 253 kts | 68° |
| 2026-04-29 23:38 | 40.71677 | 28.81231 | 6174 ft | 252 kts | 68° |
| 2026-04-29 23:38 | 40.72250 | 28.83402 | 5985 ft | 250 kts | 69° |
| 2026-04-29 23:39 | 40.72820 | 28.85564 | 5800 ft | 249 kts | 68° |
| 2026-04-29 23:39 | 40.73389 | 28.87709 | 5617 ft | 247 kts | 68° |
| 2026-04-29 23:39 | 40.73947 | 28.89815 | 5404 ft | 246 kts | 69° |
| 2026-04-29 23:39 | 40.74512 | 28.91950 | 5025 ft | 246 kts | 69° |
| 2026-04-29 23:40 | 40.75070 | 28.94065 | 4657 ft | 243 kts | 70° |
| 2026-04-29 23:40 | 40.75622 | 28.96159 | 4327 ft | 241 kts | 70° |
| 2026-04-29 23:40 | 40.76166 | 28.98224 | 4135 ft | 232 kts | 70° |
| 2026-04-29 23:40 | 40.76681 | 29.00179 | 4059 ft | 221 kts | 70° |
| 2026-04-29 23:41 | 40.77280 | 29.02028 | 3941 ft | 219 kts | 58° |
| 2026-04-29 23:41 | 40.78103 | 29.03749 | 3551 ft | 222 kts | 57° |
| 2026-04-29 23:41 | 40.78935 | 29.05464 | 3189 ft | 221 kts | 57° |
| 2026-04-29 23:41 | 40.79755 | 29.07154 | 3026 ft | 213 kts | 58° |
| 2026-04-29 23:42 | 40.80542 | 29.08800 | 3028 ft | 212 kts | 62° |
| 2026-04-29 23:42 | 40.81202 | 29.10537 | 3032 ft | 208 kts | 64° |
| 2026-04-29 23:42 | 40.81809 | 29.12202 | 3026 ft | 196 kts | 64° |
| 2026-04-29 23:42 | 40.82400 | 29.13804 | 2964 ft | 192 kts | 64° |
| 2026-04-29 23:43 | 40.82973 | 29.15352 | 2788 ft | 184 kts | 64° |
| 2026-04-29 23:43 | 40.83530 | 29.16856 | 2530 ft | 180 kts | 64° |
| 2026-04-29 23:43 | 40.84067 | 29.18305 | 2301 ft | 175 kts | 64° |
| 2026-04-29 23:43 | 40.84592 | 29.19724 | 2059 ft | 168 kts | 64° |
| 2026-04-29 23:44 | 40.85086 | 29.21058 | 1873 ft | 155 kts | 65° |
| 2026-04-29 23:44 | 40.85541 | 29.22287 | 1658 ft | 142 kts | 65° |
| 2026-04-29 23:44 | 40.85965 | 29.23433 | 1460 ft | 137 kts | 64° |
| 2026-04-29 23:44 | 40.86378 | 29.24553 | 1275 ft | 133 kts | 65° |
| 2026-04-29 23:45 | 40.86768 | 29.25654 | 1068 ft | 132 kts | 65° |
| 2026-04-29 23:45 | 40.87158 | 29.26744 | 881 ft | 131 kts | 62° |
| 2026-04-29 23:45 | 40.87571 | 29.27809 | 697 ft | 130 kts | 62° |
| 2026-04-29 23:45 | 40.87961 | 29.28887 | 532 ft | 130 kts | 61° |
| 2026-04-29 23:46 | 40.88366 | 29.29939 | 382 ft | 128 kts | 60° |
| 2026-04-29 23:46 | 40.88747 | 29.30982 | 309 ft | 118 kts | 62° |
| 2026-04-29 23:46 | 40.89059 | 29.31797 | 308 ft | 71 kts | 64° |
| 2026-04-29 23:46 | 40.89168 | 29.32112 | 305 ft | 26 kts | 64° |
| 2026-04-29 23:47 | 40.89264 | 29.32307 | 303 ft | 25 kts | 47° |
| 2026-04-29 23:47 | 40.89393 | 29.32442 | 307 ft | 22 kts | 33° |
| 2026-04-29 23:47 | 40.89482 | 29.32485 | 309 ft | 13 kts | 333° |
| 2026-04-29 23:47 | 40.89512 | 29.32380 | 307 ft | 12 kts | 309° |
| 2026-04-29 23:48 | 40.89589 | 29.32346 | 308 ft | 13 kts | 345° |
| 2026-04-29 23:48 | 40.89680 | 29.32292 | 307 ft | 16 kts | 334° |
| 2026-04-29 23:48 | 40.89780 | 29.32228 | 309 ft | 16 kts | 333° |
| 2026-04-29 23:48 | 40.89877 | 29.32165 | 312 ft | 15 kts | 334° |
| 2026-04-29 23:49 | 40.89955 | 29.32114 | 314 ft | 9 kts | 334° |
| 2026-04-29 23:49 | 40.90006 | 29.32081 | 318 ft | 6 kts | 334° |
| 2026-04-29 23:49 | 40.90032 | 29.32064 | 320 ft | 5 kts | 334° |
| 2026-04-29 23:49 | 40.90070 | 29.32055 | 321 ft | 9 kts | 8° |
| 2026-04-29 23:50 | 40.90118 | 29.32132 | 321 ft | 12 kts | 63° |
| 2026-04-29 23:50 | 40.90160 | 29.32248 | 320 ft | 15 kts | 64° |
| 2026-04-29 23:50 | 40.90261 | 29.32521 | 320 ft | 17 kts | 64° |
| 2026-04-29 23:51 | 40.90327 | 29.32582 | 321 ft | 12 kts | 344° |
| 2026-04-29 23:51 | 40.90413 | 29.32526 | 320 ft | 15 kts | 330° |
| 2026-04-29 23:51 | 40.90515 | 29.32464 | 320 ft | 16 kts | 336° |
| 2026-04-29 23:51 | 40.90588 | 29.32360 | 320 ft | 17 kts | 273° |
| 2026-04-29 23:52 | 40.90547 | 29.32229 | 321 ft | 15 kts | 244° |
| 2026-04-29 23:52 | 40.90508 | 29.32123 | 320 ft | 11 kts | 244° |
| 2026-04-29 23:52 | 40.90485 | 29.32039 | 321 ft | 9 kts | 269° |
| 2026-04-29 23:52 | 40.90516 | 29.31982 | 321 ft | 7 kts | 327° |
| 2026-04-29 23:53 | 40.90562 | 29.31952 | 319 ft | 8 kts | 335° |
| 2026-04-29 23:53 | 40.90617 | 29.31914 | 321 ft | 10 kts | 325° |
| 2026-04-29 23:53 | 40.90668 | 29.31879 | 321 ft | 0 kts | 334° |
| 2026-04-29 23:54 | 40.90668 | 29.31875 | 321 ft | 0 kts | 303° |
| 2026-04-29 23:54 | 40.90668 | 29.31871 | 319 ft | 0 kts | 281° |
| 2026-04-29 23:54 | 40.90673 | 29.31859 | 320 ft | 1 kts | 304° |
| 2026-04-29 23:54 | 40.90678 | 29.31854 | 319 ft | 1 kts | 321° |
| 2026-04-29 23:55 | 40.90682 | 29.31851 | 320 ft | 1 kts | 329° |
| 2026-04-29 23:55 | 40.90692 | 29.31845 | 321 ft | 2 kts | 333° |
| 2026-04-29 23:55 | 40.90700 | 29.31839 | 321 ft | 0 kts | 333° |
| 2026-04-29 23:55 | 40.90701 | 29.31839 | 321 ft | 0 kts | 333° |